Time;durP1;ratioP1;P1;durP2;ratioP2;P2;SDS_P1;SDS_P2;PMS_P1;PMS_P2;Temp;Humidity;BMP_temperature;BMP_pressure;BME280_temperature;BME280_humidity;BME280_pressure;Samples;Min_cycle;Max_cycle;Signal;HPM_P1;HPM_P2
2022/04/09 00:01:29;;;;;;;7.85;4.80;;;19.90;60.50;;;;;;5034677;28;20028;-81
2022/04/09 00:03:55;;;;;;;6.47;3.85;;;19.50;61.20;;;;;;5052589;28;20502;-81
2022/04/09 00:06:20;;;;;;;5.90;3.85;;;19.40;61.60;;;;;;5034586;28;20032;-81
2022/04/09 00:08:46;;;;;;;9.00;4.40;;;19.50;61.40;;;;;;5034700;28;20037;-81
2022/04/09 00:11:13;;;;;;;5.68;3.80;;;19.00;63.40;;;;;;5040172;28;20036;-80
2022/04/09 00:13:41;;;;;;;7.97;5.97;;;19.20;63.00;;;;;;5052299;28;20028;-80
2022/04/09 00:16:06;;;;;;;6.75;4.22;;;19.30;62.50;;;;;;5037158;28;20033;-81
2022/04/09 00:18:32;;;;;;;6.38;4.82;;;19.60;62.10;;;;;;5055530;28;20040;-80
2022/04/09 00:20:58;;;;;;;6.25;3.78;;;19.80;61.30;;;;;;5044245;28;20392;-81
2022/04/09 00:23:24;;;;;;;6.50;3.78;;;19.80;61.00;;;;;;5056090;28;20029;-81
2022/04/09 00:25:50;;;;;;;6.30;4.40;;;19.40;61.70;;;;;;5056174;28;20112;-81
2022/04/09 00:28:15;;;;;;;8.73;3.88;;;19.30;62.70;;;;;;5039197;28;20031;-81
2022/04/09 00:30:41;;;;;;;11.50;7.47;;;19.20;62.70;;;;;;5037837;28;20063;-81
2022/04/09 00:33:07;;;;;;;7.22;5.00;;;19.00;63.50;;;;;;5055883;28;20029;-81
2022/04/09 00:35:33;;;;;;;5.65;4.13;;;19.10;63.30;;;;;;5056835;28;20032;-80
2022/04/09 00:37:59;;;;;;;4.90;3.75;;;18.90;63.00;;;;;;5052417;28;20028;-81
2022/04/09 00:40:25;;;;;;;6.53;4.00;;;18.60;64.10;;;;;;5055847;28;20056;-82
2022/04/09 00:42:52;;;;;;;6.35;4.15;;;17.10;69.10;;;;;;5055867;28;20029;-81
2022/04/09 00:45:17;;;;;;;8.77;5.45;;;15.60;74.00;;;;;;5038204;28;20063;-81
2022/04/09 00:47:44;;;;;;;9.98;5.50;;;15.10;77.70;;;;;;5051728;28;20414;-82
2022/04/09 00:50:11;;;;;;;10.35;6.20;;;16.00;75.40;;;;;;5057136;28;20040;-81
2022/04/09 00:52:46;;;;;;;7.07;4.95;;;16.90;71.90;;;;;;5075327;28;20383;-81
2022/04/09 00:55:13;;;;;;;5.90;4.40;;;17.40;69.40;;;;;;5074006;28;20024;-82
2022/04/09 00:57:41;;;;;;;9.82;4.50;;;17.40;69.00;;;;;;5057387;28;20029;-83
2022/04/09 01:00:09;;;;;;;7.18;4.95;;;17.20;69.50;;;;;;5074839;28;20021;-82
2022/04/09 01:02:40;;;;;;;7.47;4.38;;;17.50;69.40;;;;;;5056230;28;20025;-81
2022/04/09 01:05:06;;;;;;;7.07;4.05;;;18.00;67.60;;;;;;5055543;28;20545;-82
2022/04/09 01:07:33;;;;;;;7.05;4.22;;;18.10;66.60;;;;;;5037607;28;20400;-82
2022/04/09 01:09:59;;;;;;;7.03;4.97;;;18.10;66.70;;;;;;5050458;28;20043;-81
2022/04/09 01:12:24;;;;;;;8.32;4.00;;;18.60;65.70;;;;;;5047474;28;20371;-81
2022/04/09 01:14:50;;;;;;;6.70;4.28;;;19.00;64.30;;;;;;5055138;28;20032;-80
2022/04/09 01:17:16;;;;;;;9.48;4.93;;;19.30;63.80;;;;;;5055838;28;20056;-80
2022/04/09 01:19:41;;;;;;;7.35;5.38;;;19.30;63.90;;;;;;5067089;28;20121;-82
2022/04/09 01:22:07;;;;;;;9.63;6.63;;;19.50;62.90;;;;;;5046933;28;20434;-83
2022/04/09 01:24:33;;;;;;;7.55;4.85;;;18.40;65.60;;;;;;5040803;28;20427;-81
2022/04/09 01:26:58;;;;;;;7.57;4.97;;;18.40;66.00;;;;;;5048745;28;20029;-80
2022/04/09 01:29:24;;;;;;;9.63;5.60;;;18.40;66.00;;;;;;5067163;28;20488;-79
2022/04/09 01:31:50;;;;;;;11.30;6.50;;;18.60;65.60;;;;;;5053089;28;20029;-81
2022/04/09 01:34:16;;;;;;;7.88;4.75;;;18.60;65.70;;;;;;5037606;28;20357;-81
2022/04/09 01:36:42;;;;;;;8.70;5.30;;;18.80;65.20;;;;;;5053118;28;20133;-81
2022/04/09 01:39:07;;;;;;;10.55;6.90;;;18.80;65.30;;;;;;5053018;28;20032;-81
2022/04/09 01:41:33;;;;;;;6.85;5.20;;;18.90;64.60;;;;;;5052754;28;20039;-81
2022/04/09 01:43:59;;;;;;;8.38;6.00;;;19.10;63.80;;;;;;5052659;28;20071;-85
2022/04/09 01:46:24;;;;;;;10.60;6.75;;;18.40;66.10;;;;;;5054417;28;20051;-80
2022/04/09 01:48:50;;;;;;;7.13;4.82;;;18.60;65.50;;;;;;5053998;28;20040;-80
2022/04/09 01:51:16;;;;;;;8.82;5.45;;;18.60;65.60;;;;;;5053934;28;20029;-80
2022/04/09 01:53:41;;;;;;;7.55;5.20;;;18.70;65.60;;;;;;5052915;28;20025;-80
2022/04/09 01:56:07;;;;;;;6.70;4.72;;;19.00;65.00;;;;;;5052342;28;20029;-82
2022/04/09 01:58:33;;;;;;;10.73;6.15;;;18.80;64.80;;;;;;5053830;28;20029;-80
2022/04/09 02:00:59;;;;;;;8.90;5.13;;;18.40;66.10;;;;;;5053255;28;20029;-83
2022/04/09 02:03:27;;;;;;;6.15;4.10;;;18.30;66.10;;;;;;5052525;28;20029;-82
2022/04/09 02:05:53;;;;;;;7.03;4.10;;;16.10;72.20;;;;;;5053425;28;20024;-83
2022/04/09 02:08:20;;;;;;;5.80;4.03;;;15.90;73.90;;;;;;5054317;28;20032;-84
2022/04/09 02:10:45;;;;;;;8.02;4.32;;;16.40;72.30;;;;;;5052602;28;20044;-81
2022/04/09 02:13:12;;;;;;;8.13;4.43;;;16.60;71.20;;;;;;5052704;28;20025;-81
2022/04/09 02:15:38;;;;;;;9.98;5.70;;;16.60;71.30;;;;;;5052697;28;20570;-81
2022/04/09 02:18:04;;;;;;;8.15;4.55;;;17.00;70.80;;;;;;5052631;28;20115;-83
2022/04/09 02:20:30;;;;;;;8.40;5.88;;;17.40;69.60;;;;;;5053541;28;20036;-83
2022/04/09 02:22:56;;;;;;;7.57;4.68;;;17.70;68.10;;;;;;5052258;28;20052;-83
2022/04/09 02:25:22;;;;;;;7.32;5.20;;;17.30;68.70;;;;;;5053525;28;20115;-83
2022/04/09 02:27:47;;;;;;;10.02;6.15;;;17.00;70.90;;;;;;5052659;28;20017;-83
2022/04/09 02:30:14;;;;;;;6.00;3.88;;;16.90;71.00;;;;;;5051829;28;20070;-84
2022/04/09 02:32:51;;;;;;;8.55;4.97;;;16.90;68.80;;;;;;5052707;28;20071;-82
2022/04/09 02:35:17;;;;;;;6.55;4.60;;;15.80;74.10;;;;;;5044762;28;20464;-80
2022/04/09 02:37:43;;;;;;;6.28;4.05;;;15.30;77.20;;;;;;5032156;28;20039;-81
2022/04/09 02:40:10;;;;;;;4.05;2.17;;;15.70;75.00;;;;;;5036767;28;20384;-84
2022/04/09 02:42:37;;;;;;;5.60;1.90;;;16.00;70.10;;;;;;5040509;28;20032;-81
2022/04/09 02:45:04;;;;;;;3.25;1.67;;;16.50;67.80;;;;;;5051218;28;20040;-81
2022/04/09 02:47:31;;;;;;;3.05;1.50;;;17.10;65.40;;;;;;5050053;28;20035;-81
2022/04/09 02:49:58;;;;;;;2.60;1.20;;;17.50;64.30;;;;;;5036373;28;20594;-81
2022/04/09 02:52:27;;;;;;;4.40;1.50;;;17.60;61.70;;;;;;5031985;28;20411;-82
2022/04/09 02:54:53;;;;;;;3.40;1.50;;;17.80;63.40;;;;;;5032839;28;20029;-83
2022/04/09 02:57:19;;;;;;;3.97;1.92;;;17.40;63.00;;;;;;5041788;28;20066;-81
2022/04/09 02:59:45;;;;;;;3.83;1.60;;;17.20;65.30;;;;;;5045722;28;20491;-80
2022/04/09 03:02:11;;;;;;;3.42;1.48;;;17.30;64.70;;;;;;5051631;28;20025;-81
2022/04/09 03:04:37;;;;;;;3.97;1.75;;;17.30;63.30;;;;;;5052938;28;20033;-82
2022/04/09 03:07:02;;;;;;;5.03;2.17;;;17.40;64.20;;;;;;5042489;28;20392;-83
2022/04/09 03:09:28;;;;;;;5.07;1.90;;;17.80;65.40;;;;;;5036823;28;20039;-81
2022/04/09 03:11:54;;;;;;;5.00;1.58;;;18.40;64.10;;;;;;5052957;28;20029;-81
2022/04/09 03:14:20;;;;;;;3.65;1.77;;;18.80;61.50;;;;;;5052792;28;20036;-82
2022/04/09 03:16:46;;;;;;;4.07;1.50;;;18.80;61.90;;;;;;5032915;28;20464;-81
2022/04/09 03:19:11;;;;;;;4.25;1.38;;;19.10;60.70;;;;;;5047015;28;20021;-82
2022/04/09 03:21:37;;;;;;;2.97;1.60;;;19.30;60.90;;;;;;5048849;28;20035;-80
2022/04/09 03:24:03;;;;;;;4.38;1.85;;;19.10;61.30;;;;;;5053211;28;20047;-82
2022/04/09 03:26:29;;;;;;;4.00;1.75;;;19.20;62.20;;;;;;5050298;28;20079;-81
2022/04/09 03:28:55;;;;;;;2.90;1.70;;;19.30;62.50;;;;;;5051005;28;20033;-81
2022/04/09 03:31:21;;;;;;;9.13;2.10;;;19.30;61.70;;;;;;5053690;28;20028;-81
2022/04/09 03:33:51;;;;;;;4.18;1.98;;;19.30;61.70;;;;;;5054683;28;20497;-83
2022/04/09 03:36:16;;;;;;;8.35;1.70;;;19.30;62.10;;;;;;5054902;28;20020;-84
2022/04/09 03:38:42;;;;;;;4.63;1.70;;;18.80;62.60;;;;;;5045726;28;20048;-81
2022/04/09 03:41:08;;;;;;;3.72;1.60;;;18.80;63.20;;;;;;5065710;28;20029;-83
2022/04/09 03:43:34;;;;;;;3.83;1.67;;;19.00;62.70;;;;;;5066566;28;20047;-82
2022/04/09 03:45:59;;;;;;;4.60;1.73;;;18.90;63.50;;;;;;5073053;28;20029;-85
2022/04/09 03:48:25;;;;;;;4.05;1.90;;;19.10;63.00;;;;;;5054458;28;20021;-83
2022/04/09 03:50:51;;;;;;;4.28;1.77;;;18.80;64.60;;;;;;5037058;28;20507;-82
2022/04/09 03:53:20;;;;;;;5.00;1.75;;;18.90;63.00;;;;;;5065211;28;20035;-80
2022/04/09 03:55:47;;;;;;;4.93;1.80;;;18.40;64.30;;;;;;5067455;28;20032;-83
2022/04/09 03:58:17;;;;;;;3.90;1.60;;;18.20;65.90;;;;;;5071695;28;20051;-84
2022/04/09 04:00:43;;;;;;;13.98;8.23;;;18.20;65.60;;;;;;5058665;28;20036;-84
2022/04/09 04:03:10;;;;;;;19.45;10.45;;;18.40;65.50;;;;;;5058957;28;20059;-83
2022/04/09 04:05:38;;;;;;;11.80;6.95;;;18.70;64.40;;;;;;5073605;28;20031;-85
2022/04/09 04:08:07;;;;;;;7.65;3.67;;;19.10;63.40;;;;;;5091456;28;20537;-84
2022/04/09 04:10:35;;;;;;;7.13;2.80;;;19.00;63.50;;;;;;5087982;28;20136;-85
2022/04/09 04:13:01;;;;;;;7.13;2.50;;;19.10;63.80;;;;;;5093900;28;20016;-83
2022/04/09 04:15:48;;;;;;;3.92;2.00;;;19.10;63.70;;;;;;5085597;28;20034;-84
2022/04/09 04:18:13;;;;;;;4.95;1.80;;;19.20;63.50;;;;;;5029780;28;20034;-84
2022/04/09 04:20:46;;;;;;;3.92;1.85;;;19.20;62.50;;;;;;5015546;28;20038;-87
2022/04/09 04:23:11;;;;;;;8.65;5.13;;;17.90;65.10;;;;;;5015380;28;20076;-84
2022/04/09 04:25:37;;;;;;;9.90;4.70;;;16.80;71.00;;;;;;5016832;28;20041;-91
2022/04/09 04:28:03;;;;;;;10.93;3.40;;;15.90;73.30;;;;;;5017352;28;20116;-83
2022/04/09 04:30:29;;;;;;;5.18;2.72;;;15.20;76.50;;;;;;5033061;28;20425;-81
2022/04/09 04:32:54;;;;;;;5.57;2.65;;;15.50;77.50;;;;;;5016590;28;20021;-81
2022/04/09 04:35:20;;;;;;;7.00;3.50;;;16.20;73.80;;;;;;5016451;28;20026;-81
2022/04/09 04:37:47;;;;;;;6.03;3.33;;;16.80;72.30;;;;;;5004243;28;20400;-81
2022/04/09 04:40:15;;;;;;;4.88;2.42;;;17.30;70.40;;;;;;5032971;28;20033;-82
2022/04/09 04:42:40;;;;;;;3.70;1.70;;;17.60;68.60;;;;;;5044346;28;20043;-83
2022/04/09 04:45:07;;;;;;;3.72;1.80;;;17.20;69.40;;;;;;5096929;28;20027;-83
2022/04/09 04:47:40;;;;;;;4.40;1.50;;;17.30;68.60;;;;;;5085343;28;20543;-82
2022/04/09 04:50:07;;;;;;;3.65;1.58;;;17.00;68.70;;;;;;5076283;28;20111;-83
2022/04/09 04:52:32;;;;;;;4.05;1.67;;;16.70;70.70;;;;;;5075969;28;20024;-84
2022/04/09 04:54:58;;;;;;;3.85;1.63;;;16.70;69.70;;;;;;5057963;28;20025;-84
2022/04/09 04:57:24;;;;;;;3.53;1.70;;;17.00;70.00;;;;;;5058168;28;20467;-82
2022/04/09 04:59:49;;;;;;;4.00;1.80;;;17.60;67.60;;;;;;5057974;28;20069;-83
2022/04/09 05:02:15;;;;;;;4.97;2.03;;;18.00;67.50;;;;;;5057705;28;20478;-83
2022/04/09 05:04:41;;;;;;;4.38;1.83;;;18.50;66.30;;;;;;5076109;28;20031;-83
2022/04/09 05:07:06;;;;;;;4.05;1.70;;;18.80;64.90;;;;;;5058128;28;20027;-83
2022/04/09 05:09:34;;;;;;;3.22;1.83;;;18.90;64.50;;;;;;5075748;28;20395;-82
2022/04/09 05:11:59;;;;;;;4.30;2.30;;;19.00;65.10;;;;;;5075358;28;20056;-83
2022/04/09 05:14:25;;;;;;;4.50;2.30;;;19.20;64.20;;;;;;5056865;28;20055;-80
2022/04/09 05:16:51;;;;;;;3.95;1.95;;;19.60;63.30;;;;;;5075073;28;20420;-81
2022/04/09 05:19:16;;;;;;;4.75;1.95;;;19.90;62.80;;;;;;5057369;28;20077;-82
2022/04/09 05:21:44;;;;;;;4.80;2.15;;;19.90;61.90;;;;;;5076596;28;20033;-83
2022/04/09 05:24:10;;;;;;;6.35;2.20;;;19.90;62.20;;;;;;5077704;28;20066;-83
2022/04/09 05:26:36;;;;;;;6.50;3.80;;;19.80;61.40;;;;;;5083747;28;20060;-83
2022/04/09 05:29:01;;;;;;;7.82;4.72;;;18.80;64.00;;;;;;5055518;28;20040;-82
2022/04/09 05:31:27;;;;;;;8.95;6.38;;;18.70;65.30;;;;;;5056349;28;20487;-83
2022/04/09 05:33:57;;;;;;;8.30;5.22;;;18.60;65.50;;;;;;5068519;28;20024;-81
2022/04/09 05:36:23;;;;;;;5.68;4.05;;;18.90;64.80;;;;;;5063975;28;20016;-83
2022/04/09 05:38:49;;;;;;;5.47;3.92;;;19.10;64.20;;;;;;5093468;28;20038;-83
2022/04/09 05:41:15;;;;;;;4.55;2.40;;;19.40;63.80;;;;;;5062570;28;20020;-81
2022/04/09 05:43:41;;;;;;;4.68;2.50;;;19.70;62.50;;;;;;5060968;28;20021;-81
2022/04/09 05:46:06;;;;;;;5.15;2.10;;;19.70;62.10;;;;;;5056671;28;20024;-83
2022/04/09 05:48:32;;;;;;;7.30;4.90;;;19.50;62.60;;;;;;5052138;28;20036;-84
2022/04/09 05:50:58;;;;;;;10.43;7.35;;;19.00;63.70;;;;;;5072658;28;20133;-83
2022/04/09 05:53:24;;;;;;;6.35;3.70;;;18.60;65.00;;;;;;5054404;28;20032;-82
2022/04/09 05:55:50;;;;;;;6.80;4.50;;;18.70;64.40;;;;;;5054083;28;20036;-81
2022/04/09 05:58:16;;;;;;;5.35;3.13;;;18.90;64.10;;;;;;5057412;28;20012;-80
2022/04/09 06:00:41;;;;;;;5.38;3.22;;;17.80;66.40;;;;;;5072377;28;20483;-83
2022/04/09 06:03:07;;;;;;;5.30;3.10;;;17.40;68.50;;;;;;5054635;28;20048;-80
2022/04/09 06:05:32;;;;;;;6.43;4.60;;;18.00;66.90;;;;;;5066254;28;20149;-84
2022/04/09 06:07:58;;;;;;;5.70;3.00;;;18.10;66.50;;;;;;5092592;28;20028;-82
2022/04/09 06:10:24;;;;;;;5.60;4.47;;;18.70;65.80;;;;;;5083890;28;20040;-83
2022/04/09 06:12:50;;;;;;;4.65;2.20;;;19.20;64.50;;;;;;5054218;28;20033;-82
2022/04/09 06:15:15;;;;;;;2.88;1.65;;;19.60;63.50;;;;;;5072656;28;20028;-82
2022/04/09 06:17:41;;;;;;;7.25;3.83;;;19.80;62.40;;;;;;5072616;28;20064;-82
2022/04/09 06:20:07;;;;;;;5.68;3.20;;;20.10;61.60;;;;;;5055034;28;20028;-85
2022/04/09 06:22:33;;;;;;;6.63;2.90;;;19.60;62.30;;;;;;5082513;28;20099;-82
2022/04/09 06:24:59;;;;;;;7.55;5.03;;;19.20;63.60;;;;;;5087336;28;20054;-82
2022/04/09 06:27:25;;;;;;;11.00;7.15;;;19.00;64.50;;;;;;5069118;28;20024;-85
2022/04/09 06:29:51;;;;;;;4.95;2.80;;;18.90;65.40;;;;;;5074799;28;20064;-81
2022/04/09 06:32:19;;;;;;;3.78;2.22;;;19.00;64.70;;;;;;5051747;28;20025;-84
2022/04/09 06:34:45;;;;;;;5.65;2.45;;;19.10;64.40;;;;;;5052478;28;20024;-83
2022/04/09 06:37:11;;;;;;;8.50;3.08;;;18.80;64.80;;;;;;5035313;28;20017;-89
2022/04/09 06:39:36;;;;;;;7.55;2.90;;;18.30;67.60;;;;;;5035117;28;20037;-89
2022/04/09 06:42:02;;;;;;;21.75;10.00;;;18.30;67.60;;;;;;5054111;28;20025;-85
2022/04/09 06:44:28;;;;;;;11.48;5.95;;;18.10;68.60;;;;;;5055065;28;20028;-90
2022/04/09 06:46:54;;;;;;;9.00;5.25;;;18.30;67.80;;;;;;5055312;28;20032;-88
2022/04/09 06:49:20;;;;;;;16.35;7.82;;;18.60;67.00;;;;;;5048012;28;20564;-90
2022/04/09 06:51:47;;;;;;;25.90;13.27;;;18.90;66.20;;;;;;5073538;28;20364;-90
2022/04/09 06:54:13;;;;;;;6.93;4.80;;;18.40;67.60;;;;;;5056221;28;20037;-88
2022/04/09 06:56:38;;;;;;;7.88;5.95;;;17.70;69.80;;;;;;5073938;28;20024;-89
2022/04/09 06:59:07;;;;;;;8.77;6.88;;;16.60;73.80;;;;;;5055784;28;20027;-83
2022/04/09 07:01:33;;;;;;;16.85;14.25;;;16.80;73.30;;;;;;5055893;28;20475;-84
2022/04/09 07:04:00;;;;;;;15.07;10.38;;;17.30;72.40;;;;;;5055893;28;20073;-84
2022/04/09 07:06:26;;;;;;;7.00;4.43;;;18.00;70.30;;;;;;5055530;28;20020;-83
2022/04/09 07:08:51;;;;;;;10.70;4.95;;;18.00;68.50;;;;;;5055513;28;20017;-83
2022/04/09 07:11:17;;;;;;;8.30;4.63;;;18.10;69.10;;;;;;5055569;28;20032;-82
2022/04/09 07:13:43;;;;;;;9.98;4.68;;;18.00;68.60;;;;;;5055668;28;20410;-87
2022/04/09 07:16:09;;;;;;;7.82;3.42;;;17.60;69.80;;;;;;5073401;28;20483;-82
2022/04/09 07:18:34;;;;;;;5.30;2.40;;;16.90;71.20;;;;;;5073537;28;20103;-91
2022/04/09 07:21:01;;;;;;;2.90;1.33;;;16.50;73.30;;;;;;5055235;28;20032;-82
2022/04/09 07:23:27;;;;;;;4.38;1.48;;;16.40;72.30;;;;;;5055437;28;20021;-81
2022/04/09 07:25:53;;;;;;;3.83;1.40;;;16.70;71.10;;;;;;5054994;28;20024;-84
2022/04/09 07:28:19;;;;;;;2.65;1.17;;;16.90;68.90;;;;;;5055541;28;20082;-84
2022/04/09 07:30:45;;;;;;;2.40;1.00;;;17.20;68.70;;;;;;5073239;28;20040;-83
2022/04/09 07:33:11;;;;;;;3.20;1.27;;;17.40;67.40;;;;;;5073269;28;20027;-82
2022/04/09 07:35:36;;;;;;;3.83;1.15;;;17.30;66.90;;;;;;5072986;28;20032;-84
2022/04/09 07:38:03;;;;;;;2.67;1.00;;;16.70;69.30;;;;;;5073315;28;20055;-83
2022/04/09 07:40:29;;;;;;;3.45;1.40;;;16.50;69.30;;;;;;5055323;28;20419;-83
2022/04/09 07:42:57;;;;;;;3.83;1.30;;;16.50;70.10;;;;;;5055116;28;20475;-83
2022/04/09 07:45:22;;;;;;;2.53;1.30;;;16.20;69.80;;;;;;5073265;28;20032;-83
2022/04/09 07:48:00;;;;;;;3.72;1.23;;;16.30;70.60;;;;;;5055586;28;20028;-82
2022/04/09 07:50:27;;;;;;;3.65;1.55;;;16.30;70.60;;;;;;5072924;28;20090;-83
2022/04/09 07:52:54;;;;;;;3.20;1.40;;;16.30;70.30;;;;;;5055237;28;20024;-87
2022/04/09 07:55:20;;;;;;;3.33;1.40;;;16.50;70.00;;;;;;5072884;28;20032;-83
2022/04/09 07:57:51;;;;;;;3.33;1.80;;;17.00;69.50;;;;;;5072956;28;20025;-84
2022/04/09 08:00:19;;;;;;;3.88;1.60;;;17.50;67.70;;;;;;5054488;28;20043;-84
2022/04/09 08:02:44;;;;;;;3.88;1.70;;;17.70;67.20;;;;;;5055199;28;20021;-85
2022/04/09 08:05:10;;;;;;;3.30;1.70;;;18.00;66.20;;;;;;5055183;28;20081;-88
2022/04/09 08:07:40;;;;;;;4.32;1.70;;;18.30;65.90;;;;;;5055559;28;20025;-88
2022/04/09 08:10:07;;;;;;;4.23;2.10;;;18.70;64.90;;;;;;5055236;28;20502;-88
2022/04/09 08:12:33;;;;;;;6.60;2.58;;;18.70;64.40;;;;;;5055489;28;20048;-85
2022/04/09 08:14:59;;;;;;;4.78;2.30;;;18.30;66.40;;;;;;5055364;28;20055;-87
2022/04/09 08:17:25;;;;;;;4.63;2.25;;;17.80;67.50;;;;;;5055196;28;20478;-85
2022/04/09 08:19:51;;;;;;;6.00;2.92;;;17.90;67.90;;;;;;5055266;28;20034;-85
2022/04/09 08:22:18;;;;;;;6.57;4.10;;;18.30;67.40;;;;;;5073093;28;20056;-84
2022/04/09 08:24:45;;;;;;;7.63;5.28;;;18.70;65.90;;;;;;5055422;28;20376;-84
2022/04/09 08:27:11;;;;;;;9.85;7.05;;;19.00;64.80;;;;;;5055341;28;20056;-86
2022/04/09 08:29:37;;;;;;;6.18;3.90;;;19.30;64.00;;;;;;5055165;28;20044;-86
2022/04/09 08:32:07;;;;;;;4.95;2.67;;;19.00;62.80;;;;;;5055704;28;20037;-85
2022/04/09 08:34:35;;;;;;;4.82;2.83;;;19.20;62.40;;;;;;5055885;28;20040;-85
2022/04/09 08:37:01;;;;;;;4.68;2.95;;;18.90;64.90;;;;;;5056674;28;20039;-87
2022/04/09 08:39:28;;;;;;;4.85;2.72;;;19.00;64.40;;;;;;5059658;28;20024;-83
2022/04/09 08:41:56;;;;;;;4.32;2.20;;;19.10;64.90;;;;;;5062209;28;20025;-84
2022/04/09 08:44:21;;;;;;;9.20;2.85;;;19.20;64.80;;;;;;5056949;28;20021;-83
2022/04/09 08:46:47;;;;;;;5.43;2.20;;;19.10;64.70;;;;;;5056711;28;20427;-88
2022/04/09 08:49:14;;;;;;;7.03;1.88;;;19.10;65.50;;;;;;5039034;28;20479;-83
2022/04/09 08:51:40;;;;;;;6.18;2.25;;;18.90;64.90;;;;;;5041672;28;20039;-85
2022/04/09 08:54:07;;;;;;;10.23;5.20;;;18.90;65.20;;;;;;5051412;28;20078;-85
2022/04/09 08:56:37;;;;;;;7.15;4.00;;;19.10;64.60;;;;;;5058199;28;20047;-85
2022/04/09 08:59:03;;;;;;;5.87;2.97;;;19.00;65.00;;;;;;5075775;28;20035;-87
2022/04/09 09:01:30;;;;;;;5.15;2.30;;;18.80;63.80;;;;;;5075851;28;20032;-85
2022/04/09 09:03:56;;;;;;;7.60;3.45;;;18.50;65.50;;;;;;5057293;28;20382;-85
2022/04/09 09:06:28;;;;;;;5.85;2.30;;;18.60;65.60;;;;;;5066065;28;20031;-86
2022/04/09 09:09:02;;;;;;;5.43;2.25;;;18.60;65.40;;;;;;5057466;28;20035;-84
2022/04/09 09:11:29;;;;;;;4.82;2.28;;;18.50;65.20;;;;;;5056592;28;20055;-84
2022/04/09 09:13:56;;;;;;;32.50;20.10;;;18.30;65.60;;;;;;5075956;28;20082;-85
2022/04/09 09:16:29;;;;;;;24.65;18.23;;;17.90;67.40;;;;;;5058315;28;20086;-84
2022/04/09 09:19:03;;;;;;;7.55;4.60;;;17.80;67.80;;;;;;5059932;28;20425;-87
2022/04/09 09:21:29;;;;;;;130.15;99.60;;;17.80;68.60;;;;;;5058367;28;20021;-89
2022/04/09 09:24:12;;;;;;;29.15;26.60;;;18.00;68.10;;;;;;5058424;28;20025;-87
2022/04/09 09:26:41;;;;;;;12.30;11.13;;;17.70;67.10;;;;;;4719491;28;10001123;-84
2022/04/09 09:29:23;;;;;;;9.88;6.75;;;17.10;67.90;;;;;;5069685;28;20431;-81
2022/04/09 09:31:50;;;;;;;6.15;3.42;;;16.60;69.90;;;;;;5055816;28;20033;-85
2022/04/09 09:34:20;;;;;;;6.43;5.47;;;16.20;68.50;;;;;;5055669;28;20035;-92
2022/04/09 09:36:49;;;;;;;9.93;9.02;;;15.60;68.90;;;;;;5052874;28;20028;-80
2022/04/09 09:39:22;;;;;;;7.75;6.40;;;15.40;69.80;;;;;;5054946;28;20115;-83
2022/04/09 09:41:57;;;;;;;3.42;2.28;;;15.10;69.10;;;;;;5055096;28;20484;-88
2022/04/09 09:44:27;;;;;;;10.88;8.63;;;14.70;67.70;;;;;;5032918;28;20036;-81
2022/04/09 09:46:54;;;;;;;6.47;5.55;;;14.50;67.90;;;;;;5035284;28;20049;-77
2022/04/09 09:49:25;;;;;;;6.63;5.32;;;14.00;68.70;;;;;;5078543;28;20158;-87
2022/04/09 09:52:09;;;;;;;7.78;6.97;;;14.00;69.60;;;;;;5074916;28;20035;-85
2022/04/09 09:55:10;;;;;;;11.60;10.30;;;13.90;70.20;;;;;;5056929;28;20029;-83
2022/04/09 09:57:38;;;;;;;6.28;5.60;;;13.80;69.20;;;;;;4988580;28;20483;-83
2022/04/09 10:00:18;;;;;;;7.45;3.92;;;13.70;68.60;;;;;;4990651;28;20053;-85
2022/04/09 10:02:44;;;;;;;5.75;4.75;;;13.70;68.60;;;;;;4974817;28;20034;-84
2022/04/09 10:05:13;;;;;;;4.20;3.40;;;13.80;69.30;;;;;;4994756;28;20022;-84
2022/04/09 10:07:39;;;;;;;7.28;5.82;;;14.00;68.10;;;;;;4635350;28;10000122;-80
2022/04/09 10:10:06;;;;;;;7.47;3.20;;;13.90;68.10;;;;;;5002030;28;20034;-85
2022/04/09 10:12:39;;;;;;;5.10;4.22;;;13.60;69.30;;;;;;4998823;28;20469;-86
2022/04/09 10:15:06;;;;;;;6.13;3.25;;;13.50;68.10;;;;;;4995106;28;20489;-83
2022/04/09 10:17:33;;;;;;;11.32;9.48;;;13.30;68.50;;;;;;4977239;28;20045;-83
2022/04/09 10:20:01;;;;;;;6.65;5.65;;;13.30;68.30;;;;;;4969309;28;20519;-90
2022/04/09 10:22:35;;;;;;;5.88;4.55;;;13.30;67.40;;;;;;4980104;28;20046;-88
2022/04/09 10:25:01;;;;;;;4.60;3.80;;;13.00;68.20;;;;;;4985816;28;20413;-88
2022/04/09 10:27:38;;;;;;;7.25;6.55;;;13.00;68.80;;;;;;4975593;28;20035;-86
2022/04/09 10:30:17;;;;;;;6.95;6.25;;;13.10;68.60;;;;;;4975422;28;20046;-83
2022/04/09 10:32:44;;;;;;;5.70;3.55;;;13.20;67.70;;;;;;4976132;28;20089;-83
2022/04/09 10:35:39;;;;;;;8.40;6.30;;;13.10;66.30;;;;;;5037468;28;20479;-87
2022/04/09 10:38:09;;;;;;;7.65;3.90;;;13.00;67.90;;;;;;5037741;28;20025;-84
2022/04/09 10:40:52;;;;;;;3.60;2.90;;;12.80;66.30;;;;;;5051300;28;20021;-82
2022/04/09 10:43:21;;;;;;;8.15;7.03;;;12.90;68.30;;;;;;5053777;28;20074;-84
2022/04/09 10:46:05;;;;;;;2.97;1.70;;;12.90;63.90;;;;;;5035546;28;20108;-82
2022/04/09 10:48:39;;;;;;;7.82;6.93;;;12.70;64.70;;;;;;5036290;28;20029;-79
2022/04/09 10:51:14;;;;;;;3.15;2.10;;;12.20;64.60;;;;;;5033794;28;20037;-81
2022/04/09 10:53:44;;;;;;;3.55;2.33;;;12.50;64.40;;;;;;5042594;28;20013;-81
2022/04/09 10:56:27;;;;;;;4.30;2.90;;;12.60;64.00;;;;;;5058002;28;20055;-87
2022/04/09 10:59:21;;;;;;;6.60;5.35;;;12.90;62.30;;;;;;5060175;28;20554;-81
2022/04/09 11:01:46;;;;;;;23.70;20.92;;;12.50;62.20;;;;;;5052390;28;20029;-82
2022/04/09 11:04:36;;;;;;;6.65;5.05;;;12.30;62.70;;;;;;5054099;28;20037;-82
2022/04/09 11:07:18;;;;;;;30.05;25.33;;;12.20;63.70;;;;;;5043632;28;20025;-81
2022/04/09 11:09:49;;;;;;;5.82;4.68;;;12.40;63.20;;;;;;5034010;28;20041;-80
2022/04/09 11:12:18;;;;;;;9.02;8.18;;;12.90;62.00;;;;;;5052206;28;20009;-81
2022/04/09 11:14:49;;;;;;;4.77;3.93;;;13.00;60.60;;;;;;5052433;28;20025;-82
2022/04/09 11:17:22;;;;;;;6.75;2.25;;;13.30;62.40;;;;;;5054666;28;20029;-82
2022/04/09 11:19:49;;;;;;;12.55;10.18;;;12.90;61.10;;;;;;5034711;28;20035;-79
2022/04/09 11:22:15;;;;;;;14.00;10.93;;;13.00;61.50;;;;;;5053336;28;20017;-83
2022/04/09 11:24:41;;;;;;;9.07;4.93;;;13.20;59.80;;;;;;5053752;28;20017;-83
2022/04/09 11:27:07;;;;;;;15.60;11.68;;;13.00;60.10;;;;;;5051320;28;20021;-81
2022/04/09 11:29:36;;;;;;;4.82;3.20;;;12.70;60.20;;;;;;5054311;28;20051;-80
2022/04/09 11:32:03;;;;;;;13.82;10.18;;;12.80;61.40;;;;;;5072891;28;20305;-81
2022/04/09 11:34:51;;;;;;;7.35;5.70;;;13.20;60.30;;;;;;5068876;28;20032;-80
2022/04/09 11:37:17;;;;;;;4.97;3.47;;;13.30;59.50;;;;;;5056868;28;20026;-80
2022/04/09 11:39:47;;;;;;;4.68;3.47;;;13.00;60.80;;;;;;5051117;28;20082;-81
2022/04/09 11:42:13;;;;;;;11.43;6.50;;;13.30;60.30;;;;;;5040183;28;20466;-82
2022/04/09 11:44:39;;;;;;;6.65;4.40;;;13.40;59.60;;;;;;5036144;28;20132;-84
2022/04/09 11:47:11;;;;;;;5.30;3.55;;;13.50;59.80;;;;;;5076602;28;20009;-80
2022/04/09 11:49:37;;;;;;;3.70;2.00;;;13.00;60.00;;;;;;5063356;28;20115;-80
2022/04/09 11:52:06;;;;;;;8.95;6.35;;;13.40;59.60;;;;;;5063244;28;20024;-83
2022/04/09 11:54:34;;;;;;;3.75;2.15;;;12.90;58.70;;;;;;5049136;28;20032;-84
2022/04/09 11:57:01;;;;;;;6.50;2.05;;;13.00;60.40;;;;;;5066221;28;20111;-86
2022/04/09 11:59:28;;;;;;;5.70;2.90;;;13.40;59.40;;;;;;5065108;28;20032;-83
2022/04/09 12:01:54;;;;;;;36.95;21.20;;;13.70;57.90;;;;;;5066418;28;20028;-83
2022/04/09 12:04:21;;;;;;;6.60;4.00;;;13.10;58.90;;;;;;5068000;28;20024;-82
2022/04/09 12:06:46;;;;;;;7.00;3.97;;;12.80;59.10;;;;;;5060620;28;20020;-82
2022/04/09 12:09:13;;;;;;;3.20;1.90;;;12.80;58.90;;;;;;5058588;28;20047;-78
2022/04/09 12:11:54;;;;;;;16.50;13.80;;;12.40;59.20;;;;;;5059809;28;20020;-79
2022/04/09 12:14:20;;;;;;;3.80;2.35;;;12.30;59.60;;;;;;5054559;28;20159;-83
2022/04/09 12:16:47;;;;;;;11.88;9.27;;;12.50;59.30;;;;;;5061709;28;20103;-87
2022/04/09 12:19:13;;;;;;;3.45;1.67;;;12.40;58.40;;;;;;5077052;28;20035;-81
2022/04/09 12:21:53;;;;;;;28.02;19.23;;;12.00;59.20;;;;;;5058998;28;20021;-86
2022/04/09 12:24:21;;;;;;;;;;;12.10;58.10;;;;;;4786136;28;10000353;-79
2022/04/09 12:26:57;;;;;;;9.25;6.72;;;11.90;59.30;;;;;;5057532;28;20324;-86
2022/04/09 12:29:23;;;;;;;5.88;1.98;;;12.50;58.20;;;;;;5044247;28;20106;-83
2022/04/09 12:31:51;;;;;;;8.05;5.82;;;12.10;57.60;;;;;;5051212;28;20037;-80
2022/04/09 12:34:18;;;;;;;4.13;1.60;;;11.80;58.40;;;;;;5039357;28;20032;-80
2022/04/09 12:37:01;;;;;;;26.45;18.00;;;11.70;59.10;;;;;;5038284;28;20088;-79
2022/04/09 12:39:28;;;;;;;14.52;9.23;;;11.80;59.20;;;;;;5041800;28;20024;-79
2022/04/09 12:41:55;;;;;;;89.22;50.90;;;12.10;58.40;;;;;;5056734;28;20100;-81
2022/04/09 12:44:33;;;;;;;21.58;12.80;;;12.30;57.80;;;;;;5074040;28;20024;-83
2022/04/09 12:47:00;;;;;;;5.72;2.83;;;13.00;57.50;;;;;;5041624;28;20044;-85
2022/04/09 12:49:32;;;;;;;19.58;12.73;;;12.90;55.80;;;;;;5044628;28;20041;-83